Lynnville, IA (50153)

7:00 PM CST on December 22, 2014 (GMT -0600)
Grinnell Regional | Change Station
CLOSE
Current Station
Airport
Location: Grinnell,
Elevation: 1007 ft
Nearby Weather Stations

Elev 1007 ft 41.71 °N, 92.73 °W | Updated 5 minutes ago

Rain
Rain
37 °F
Feels Like 30 °F
N
9
Wind Variable Wind from East

Today
High -- | Low -- °F
--% Chance of Precip.
Yesterday
High -- | Low -- °F
Precip. -- in
7:34 AM 4:44 PM
New Moon, 1% visible
Pressure 29.48 in
Visibility 0.5 miles
Clouds Overcast 200 ft
Windchill 30 °F
Dew Point 36 °F
Humidity 98%
Rainfall 0.09 in
Snow Depth Not available.
UV 0 out of 12
Pollen .10 out of 12
Air Quality Not available.
Flu Activity Not available.
METAR KGGI 230055Z AUTO 09008KT 1/2SM -SN OVC002 03/03 A2948 RMK AO2 T00280025

More Conditions Fewer Conditions

Pressure 29.48 in
Visibility 0.5 miles
Clouds Overcast 200 ft
Windchill 30 °F
Dew Point 36 °F
Humidity 98%
Rainfall 0.09 in
Snow Depth Not available.
UV 0 out of 12
Pollen .10 out of 12
Air Quality Not available.
Flu Activity Not available.
METAR KGGI 230055Z AUTO 09008KT 1/2SM -SN OVC002 03/03 A2948 RMK AO2 T00280025

More Conditions Fewer Conditions

10-Day Weather Forecast

Almanac

Astronomy

Dec. 22, 2014 Rise Set
Actual Time
Civil Twilight
Nautical Twilight
Astronomical Twilight
Moon
Length of Visible Light
Length of Day
Tomorrow will be .
, % of the Moon is Illuminated

Today's Extremes

State Highs State Lows

Community

WunderPhotos

Upload Photos

1,779,742 photos uploaded!

WunderBlogs® & News

Nearby

Air Quality

  Air Quality AQ Index Pollutant
Not available.

Snow Depth

Station Depth Elevation

Earthquake Activity

City Distance Mag. Time & Date
Minimum magnitude displayed is 2.5.

Coastal Water Temperatures

Place Temperature

Nearby Weather Stations